Terminal Aerodrome Forecast
Issued by NWS Sioux Falls, SD

Home | Current Version | Previous Version | Graphics & Text | Print | Product List | Glossary On
Versions: 1 2 3 4 5 6 7 8 9 10 11 12 13 14 15 16 17 18
026
FTUS43 KFSD 200531
TAFFSD
TAF
KFSD 200531Z 2006/2106 17011KT 1SM BR OVC002
     FM200900 15008KT 1/2SM -DZ FG OVC003
     FM201500 15007KT 2SM -DZ BR OVC003
     FM210000 13008KT 3SM BR OVC008=

USA.gov is the U.S. government's official web portal to all federal, state and local government web resources and services.